createdAt,value
2022-11-11T00:02:25.974Z,4.35
2022-11-11T00:05:11.356Z,5.30
2022-11-11T00:07:56.925Z,5.32
2022-11-11T00:10:42.336Z,4.63
2022-11-11T00:13:28.557Z,3.78
2022-11-11T00:16:19.182Z,6.82
2022-11-11T00:19:04.138Z,5.03
2022-11-11T00:21:49.281Z,4.50
2022-11-11T00:24:34.351Z,4.57
2022-11-11T00:27:19.421Z,3.45
2022-11-11T00:30:04.602Z,5.82
2022-11-11T00:32:49.832Z,3.22
2022-11-11T00:35:35.225Z,3.72
2022-11-11T00:38:20.362Z,3.33
2022-11-11T00:41:06.154Z,4.07
2022-11-11T00:43:51.229Z,4.60
2022-11-11T00:46:36.661Z,3.65
2022-11-11T00:49:22.251Z,3.08
2022-11-11T00:52:07.529Z,3.58
2022-11-11T00:54:52.576Z,3.08
2022-11-11T00:57:37.954Z,2.70
2022-11-11T01:00:23.141Z,4.28
2022-11-11T01:03:08.416Z,4.30
2022-11-11T01:05:53.610Z,3.67
2022-11-11T01:08:38.657Z,4.40
2022-11-11T01:11:24.802Z,2.90
2022-11-11T01:14:09.792Z,3.67
2022-11-11T01:16:55.112Z,2.78
2022-11-11T01:19:40.319Z,3.70
2022-11-11T01:22:25.290Z,2.92
2022-11-11T01:25:10.555Z,2.95
2022-11-11T01:27:55.877Z,3.13
2022-11-11T01:30:40.914Z,3.33
2022-11-11T01:33:26.191Z,3.20
2022-11-11T01:36:14.827Z,4.22
2022-11-11T01:39:01.527Z,2.25
2022-11-11T01:41:46.640Z,2.35
2022-11-11T01:44:45.140Z,3.22
2022-11-11T01:47:31.166Z,2.78
2022-11-11T01:50:16.521Z,2.58
2022-11-11T01:53:01.653Z,3.20
2022-11-11T01:55:47.279Z,2.25
2022-11-11T01:58:32.578Z,5.07
2022-11-11T02:01:18.244Z,3.55
2022-11-11T02:04:05.632Z,4.65
2022-11-11T02:06:54.507Z,2.92
2022-11-11T02:09:43.581Z,3.10
2022-11-11T02:12:29.003Z,5.15
2022-11-11T02:15:14.623Z,4.40
2022-11-11T02:18:00.090Z,3.60
2022-11-11T02:20:49.060Z,2.80
2022-11-11T02:23:44.640Z,2.17
2022-11-11T02:26:33.419Z,3.33
2022-11-11T02:29:21.300Z,1.65
2022-11-11T02:32:06.709Z,2.50
2022-11-11T02:34:52.338Z,3.28
2022-11-11T02:37:37.411Z,2.85
2022-11-11T02:40:43.086Z,3.65
2022-11-11T02:43:29.266Z,3.58
2022-11-11T02:46:14.692Z,2.55
2022-11-11T02:48:59.975Z,2.13
2022-11-11T02:51:44.830Z,2.40
2022-11-11T02:54:30.090Z,2.38
2022-11-11T02:57:16.056Z,4.75
2022-11-11T03:00:01.414Z,3.33
2022-11-11T03:02:46.745Z,4.57
2022-11-11T03:05:32.345Z,2.85
2022-11-11T03:08:17.985Z,3.38
2022-11-11T03:11:03.133Z,2.90
2022-11-11T03:13:48.673Z,6.25
2022-11-11T03:16:34.523Z,3.10
2022-11-11T03:19:20.154Z,3.78
2022-11-11T03:25:10.757Z,2.25
2022-11-11T03:27:55.953Z,2.95
2022-11-11T03:30:43.799Z,1.98
2022-11-11T03:33:29.119Z,2.78
2022-11-11T03:36:14.679Z,2.42
2022-11-11T03:38:59.819Z,2.08
2022-11-11T03:41:45.291Z,2.58
2022-11-11T03:44:30.793Z,2.17
2022-11-11T03:47:15.630Z,3.33
2022-11-11T03:50:00.421Z,2.45
2022-11-11T03:52:45.705Z,3.30
2022-11-11T03:55:30.858Z,2.30
2022-11-11T03:58:16.908Z,3.00
2022-11-11T04:01:02.050Z,2.40
2022-11-11T04:03:47.129Z,2.40
2022-11-11T04:06:33.196Z,1.73
2022-11-11T04:09:18.701Z,2.72
2022-11-11T04:12:03.641Z,1.25
2022-11-11T04:14:48.678Z,2.13
2022-11-11T04:17:34.124Z,2.35
2022-11-11T04:20:19.710Z,2.58
2022-11-11T04:23:04.506Z,5.30
2022-11-11T04:25:49.813Z,3.28
2022-11-11T04:28:35.090Z,2.67
2022-11-11T04:31:20.398Z,2.63
2022-11-11T04:34:05.552Z,2.95
2022-11-11T04:36:50.837Z,1.52
2022-11-11T04:39:36.174Z,1.88
2022-11-11T04:42:21.792Z,2.92
2022-11-11T04:45:10.849Z,1.92
2022-11-11T04:48:06.878Z,2.15
2022-11-11T04:50:52.404Z,2.88
2022-11-11T04:53:37.663Z,2.13
2022-11-11T04:56:22.508Z,3.78
2022-11-11T04:59:07.507Z,2.67
2022-11-11T05:01:52.642Z,2.40
2022-11-11T05:04:37.804Z,3.35
2022-11-11T05:07:22.855Z,2.58
2022-11-11T05:10:08.154Z,2.03
2022-11-11T05:12:53.154Z,1.85
2022-11-11T05:15:37.909Z,3.47
2022-11-11T05:18:22.993Z,2.45
2022-11-11T05:21:15.187Z,2.58
2022-11-11T05:24:00.347Z,2.30
2022-11-11T05:26:45.291Z,2.60
2022-11-11T05:29:30.259Z,2.88
2022-11-11T05:32:19.072Z,2.03
2022-11-11T05:35:04.998Z,3.67
2022-11-11T05:37:50.253Z,1.90
2022-11-11T05:40:35.520Z,1.50
2022-11-11T05:43:20.788Z,3.30
2022-11-11T05:46:05.886Z,1.80
2022-11-11T05:48:51.057Z,1.90
2022-11-11T05:51:39.086Z,1.40
2022-11-11T05:54:24.585Z,2.45
2022-11-11T05:57:11.540Z,1.75
2022-11-11T05:59:56.218Z,3.78
2022-11-11T06:02:41.157Z,2.38
2022-11-11T06:05:26.003Z,2.47
2022-11-11T06:08:11.053Z,1.90
2022-11-11T06:10:56.199Z,2.10
2022-11-11T06:13:41.352Z,2.15
2022-11-11T06:16:26.507Z,4.30
2022-11-11T06:19:11.545Z,4.65
2022-11-11T06:21:56.826Z,2.53
2022-11-11T06:24:41.901Z,2.58
2022-11-11T06:27:27.109Z,1.90
2022-11-11T06:33:17.767Z,1.85
2022-11-11T06:36:03.105Z,3.42
2022-11-11T06:38:48.705Z,4.18
2022-11-11T06:41:33.913Z,2.28
2022-11-11T06:44:19.504Z,3.10
2022-11-11T06:47:04.706Z,2.20
2022-11-11T06:49:49.709Z,2.95
2022-11-11T06:52:34.608Z,2.97
2022-11-11T06:55:19.816Z,3.10
2022-11-11T06:58:13.592Z,13.73
2022-11-11T07:00:58.863Z,11.30
2022-11-11T07:03:44.005Z,12.10
2022-11-11T07:06:29.137Z,6.75
2022-11-11T07:09:14.234Z,5.07
2022-11-11T07:11:59.142Z,2.88
2022-11-11T07:14:44.141Z,3.05
2022-11-11T07:17:28.994Z,3.45
2022-11-11T07:20:14.253Z,2.55
2022-11-11T07:22:59.141Z,2.65
2022-11-11T07:25:44.203Z,5.88
2022-11-11T07:28:29.792Z,2.83
2022-11-11T07:31:14.688Z,5.90
2022-11-11T07:33:59.606Z,2.30
2022-11-11T07:36:44.351Z,2.00
2022-11-11T07:39:29.787Z,3.03
2022-11-11T07:42:30.232Z,2.55
2022-11-11T07:45:16.070Z,4.30
2022-11-11T07:48:00.879Z,2.03
2022-11-11T07:50:46.017Z,3.13
2022-11-11T07:53:31.459Z,2.90
2022-11-11T07:56:16.867Z,2.15
2022-11-11T07:59:02.308Z,2.28
2022-11-11T08:01:47.070Z,2.22
2022-11-11T08:04:31.947Z,2.38
2022-11-11T08:07:22.561Z,2.60
2022-11-11T08:10:09.290Z,4.60
2022-11-11T08:12:54.934Z,3.38
2022-11-11T08:15:40.151Z,3.58
2022-11-11T08:18:25.384Z,5.40
2022-11-11T08:21:10.857Z,4.18
2022-11-11T08:27:01.188Z,3.38
2022-11-11T08:29:46.090Z,4.35
2022-11-11T08:32:30.951Z,7.07
2022-11-11T08:35:16.361Z,4.15
2022-11-11T08:38:03.023Z,4.22
2022-11-11T08:40:47.876Z,4.53
2022-11-11T08:43:37.202Z,3.88
2022-11-11T08:46:23.829Z,4.22
2022-11-11T08:49:09.171Z,2.85
2022-11-11T08:51:54.081Z,2.90
2022-11-11T08:54:39.165Z,2.65
2022-11-11T08:57:24.430Z,3.17
2022-11-11T09:00:10.805Z,3.15
2022-11-11T09:03:00.050Z,2.05
2022-11-11T09:05:45.247Z,2.10
2022-11-11T09:08:30.443Z,2.25
2022-11-11T09:11:15.665Z,2.78
2022-11-11T09:14:00.651Z,3.25
2022-11-11T09:16:45.476Z,2.33
2022-11-11T09:19:30.336Z,14.32
2022-11-11T09:22:15.232Z,2.55
2022-11-11T09:25:00.402Z,1.73
2022-11-11T09:27:54.125Z,5.35
2022-11-11T09:30:39.102Z,3.22
2022-11-11T09:33:24.445Z,1.10
2022-11-11T09:36:09.679Z,1.92
2022-11-11T09:38:54.677Z,1.70
2022-11-11T09:42:01.098Z,2.00
2022-11-11T09:45:10.399Z,1.45
2022-11-11T09:48:10.534Z,1.85
2022-11-11T09:51:01.010Z,4.82
2022-11-11T09:54:01.530Z,2.05
2022-11-11T09:56:47.229Z,2.35
2022-11-11T09:59:45.540Z,2.08
2022-11-11T10:02:40.165Z,1.77
2022-11-11T10:05:32.608Z,2.33
2022-11-11T10:08:24.975Z,2.10
2022-11-11T10:11:25.589Z,2.05
2022-11-11T10:14:11.066Z,1.70
2022-11-11T10:17:11.684Z,1.20
2022-11-11T10:20:02.483Z,1.85
2022-11-11T10:22:51.520Z,1.23
2022-11-11T10:25:40.445Z,1.55
2022-11-11T10:28:29.812Z,1.40
2022-11-11T10:31:18.715Z,1.42
2022-11-11T10:34:12.069Z,1.52
2022-11-11T10:36:57.628Z,1.25
2022-11-11T10:40:12.571Z,1.67
2022-11-11T10:42:57.306Z,2.08
2022-11-11T10:45:50.933Z,2.00
2022-11-11T10:49:06.211Z,3.65
2022-11-11T10:52:07.773Z,4.85
2022-11-11T10:55:01.273Z,3.13
2022-11-11T10:57:55.604Z,4.20
2022-11-11T11:00:44.250Z,1.70
2022-11-11T11:03:38.026Z,4.53
2022-11-11T11:06:31.517Z,2.30
2022-11-11T11:09:22.224Z,1.20
2022-11-11T11:12:30.478Z,1.98
2022-11-11T11:15:20.569Z,2.25
2022-11-11T11:18:09.101Z,3.05
2022-11-11T11:21:00.444Z,1.27
2022-11-11T11:23:46.935Z,0.88
2022-11-11T11:26:46.832Z,0.73
2022-11-11T11:29:40.566Z,1.48
2022-11-11T11:32:32.697Z,1.58
2022-11-11T11:35:39.095Z,1.55
2022-11-11T11:38:50.115Z,1.45
2022-11-11T11:41:44.901Z,0.88
2022-11-11T11:44:32.664Z,1.48
2022-11-11T11:47:40.038Z,0.68
2022-11-11T11:50:38.707Z,1.00
2022-11-11T11:54:14.695Z,1.13
2022-11-11T11:57:04.432Z,1.10
2022-11-11T12:00:00.387Z,1.27
2022-11-11T12:03:12.597Z,0.40
2022-11-11T12:06:25.323Z,1.20
2022-11-11T12:09:30.175Z,1.60
2022-11-11T12:12:24.740Z,1.10
2022-11-11T12:15:31.305Z,0.73
2022-11-11T12:18:40.344Z,3.47
2022-11-11T12:21:48.520Z,3.75
2022-11-11T12:24:57.311Z,0.60
2022-11-11T12:28:04.429Z,0.60
2022-11-11T12:30:55.269Z,1.50
2022-11-11T12:33:58.505Z,1.80
2022-11-11T12:36:46.588Z,1.33
2022-11-11T12:40:01.849Z,0.85
2022-11-11T12:42:53.625Z,1.67
2022-11-11T12:45:45.863Z,1.85
2022-11-11T12:48:38.361Z,2.45
2022-11-11T12:51:38.621Z,3.78
2022-11-11T12:54:48.708Z,2.28
2022-11-11T12:57:39.489Z,2.65
2022-11-11T13:00:26.244Z,2.45
2022-11-11T13:03:25.269Z,2.57
2022-11-11T13:06:22.055Z,1.98
2022-11-11T13:09:37.581Z,2.85
2022-11-11T13:12:31.897Z,1.55
2022-11-11T13:15:18.581Z,2.92
2022-11-11T13:18:14.259Z,2.17
2022-11-11T13:21:13.994Z,1.60
2022-11-11T13:23:59.265Z,2.58
2022-11-11T13:26:50.068Z,2.38
2022-11-11T13:29:44.203Z,2.83
2022-11-11T13:32:40.020Z,2.83
2022-11-11T13:35:36.519Z,1.83
2022-11-11T13:38:37.608Z,2.78
2022-11-11T13:41:32.301Z,3.63
2022-11-11T13:44:24.926Z,2.22
2022-11-11T13:47:19.201Z,2.45
2022-11-11T13:50:14.905Z,2.65
2022-11-11T13:53:07.638Z,7.22
2022-11-11T13:55:54.274Z,3.97
2022-11-11T13:58:47.667Z,9.63
2022-11-11T14:01:42.381Z,6.43
2022-11-11T14:04:27.957Z,2.53
2022-11-11T14:07:44.843Z,2.92
2022-11-11T14:10:35.802Z,2.40
2022-11-11T14:13:23.817Z,5.03
2022-11-11T14:16:11.330Z,2.20
2022-11-11T14:18:56.560Z,2.53
2022-11-11T14:21:58.634Z,2.10
2022-11-11T14:24:46.922Z,2.35
2022-11-11T14:27:34.229Z,3.30
2022-11-11T14:30:40.153Z,3.38
2022-11-11T14:33:51.407Z,2.58
2022-11-11T14:36:53.175Z,2.83
2022-11-11T14:39:47.286Z,2.28
2022-11-11T14:42:35.509Z,2.58
2022-11-11T14:45:24.075Z,3.00
2022-11-11T14:48:55.096Z,1.60
2022-11-11T14:51:47.815Z,1.77
2022-11-11T14:54:42.026Z,2.03
2022-11-11T14:57:32.237Z,2.42
2022-11-11T15:00:23.769Z,3.42
2022-11-11T15:03:27.387Z,2.58
2022-11-11T15:06:23.486Z,2.83
2022-11-11T15:09:52.139Z,1.73
2022-11-11T15:13:14.468Z,1.65
2022-11-11T15:16:21.208Z,2.38
2022-11-11T15:19:36.987Z,7.10
2022-11-11T15:22:59.028Z,2.90
2022-11-11T15:26:07.527Z,1.83
2022-11-11T15:29:22.911Z,2.22
2022-11-11T15:32:22.660Z,2.38
2022-11-11T15:35:24.209Z,3.05
2022-11-11T15:38:12.736Z,2.05
2022-11-11T15:41:00.485Z,1.50
2022-11-11T15:43:45.514Z,2.47
2022-11-11T15:46:35.336Z,4.10
2022-11-11T15:49:38.748Z,4.85
2022-11-11T15:52:23.739Z,4.15
2022-11-11T15:55:22.958Z,9.40
2022-11-11T15:58:29.957Z,7.35
2022-11-11T16:01:16.500Z,6.82
2022-11-11T16:04:01.963Z,8.35
2022-11-11T16:06:47.786Z,7.30
2022-11-11T16:09:32.892Z,10.35
2022-11-11T16:12:27.191Z,3.72
2022-11-11T16:15:39.578Z,8.85
2022-11-11T16:18:27.394Z,4.30
2022-11-11T16:21:18.825Z,11.63
2022-11-11T16:24:09.519Z,13.43
2022-11-11T16:26:55.650Z,6.18
2022-11-11T16:29:41.339Z,7.57
2022-11-11T16:32:26.165Z,7.75
2022-11-11T16:35:36.881Z,6.47
2022-11-11T16:38:34.765Z,6.07
2022-11-11T16:41:27.999Z,4.22
2022-11-11T16:44:37.849Z,5.47
2022-11-11T16:47:29.030Z,5.50
2022-11-11T16:50:23.155Z,5.10
2022-11-11T16:53:24.994Z,3.15
2022-11-11T16:56:25.306Z,3.90
2022-11-11T16:59:19.416Z,3.60
2022-11-11T17:02:21.274Z,2.95
2022-11-11T17:05:07.162Z,1.65
2022-11-11T17:07:52.380Z,3.20
2022-11-11T17:10:40.378Z,2.67
2022-11-11T17:13:27.216Z,2.97
2022-11-11T17:16:13.956Z,5.28
2022-11-11T17:19:03.458Z,4.63
2022-11-11T17:21:48.919Z,3.95
2022-11-11T17:24:34.388Z,4.38
2022-11-11T17:27:19.555Z,5.25
2022-11-11T17:30:05.467Z,5.43
2022-11-11T17:32:50.315Z,4.93
2022-11-11T17:35:35.197Z,4.15
2022-11-11T17:38:20.354Z,2.83
2022-11-11T17:41:06.179Z,3.75
2022-11-11T17:43:51.538Z,4.00
2022-11-11T17:46:36.377Z,1.92
2022-11-11T17:49:42.418Z,3.25
2022-11-11T17:52:27.253Z,2.97
2022-11-11T17:55:12.100Z,5.72
2022-11-11T17:57:59.086Z,4.05
2022-11-11T18:00:44.043Z,8.65
2022-11-11T18:03:28.974Z,4.85
2022-11-11T18:06:13.836Z,5.00
2022-11-11T18:08:59.340Z,3.42
2022-11-11T18:11:44.268Z,3.97
2022-11-11T18:14:29.274Z,2.83
2022-11-11T18:17:14.510Z,4.03
2022-11-11T18:19:59.470Z,3.83
2022-11-11T18:22:44.341Z,3.60
2022-11-11T18:25:29.218Z,4.43
2022-11-11T18:28:14.148Z,5.35
2022-11-11T18:31:10.254Z,8.52
2022-11-11T18:33:55.488Z,2.72
2022-11-11T18:36:40.373Z,5.60
2022-11-11T18:39:25.626Z,4.35
2022-11-11T18:42:10.457Z,4.53
2022-11-11T18:44:55.377Z,3.30
2022-11-11T18:47:40.445Z,5.88
2022-11-11T18:50:25.577Z,4.68
2022-11-11T18:53:10.811Z,6.65
2022-11-11T18:55:55.735Z,2.47
2022-11-11T18:58:40.986Z,5.10
2022-11-11T19:01:28.923Z,5.60
2022-11-11T19:04:14.221Z,4.55
2022-11-11T19:06:59.059Z,4.47
2022-11-11T19:09:44.560Z,4.50
2022-11-11T19:12:29.350Z,5.13
2022-11-11T19:15:14.549Z,7.43
2022-11-11T19:17:59.754Z,5.97
2022-11-11T19:20:45.227Z,6.57
2022-11-11T19:23:30.192Z,5.95
2022-11-11T19:26:16.034Z,7.85
2022-11-11T19:29:02.295Z,6.88
2022-11-11T19:31:47.215Z,6.57
2022-11-11T19:34:32.247Z,6.35
2022-11-11T19:37:17.315Z,5.28
2022-11-11T19:40:02.591Z,8.95
2022-11-11T19:42:48.852Z,5.50
2022-11-11T19:45:36.858Z,8.02
2022-11-11T19:48:22.109Z,6.35
2022-11-11T19:51:12.197Z,6.22
2022-11-11T19:53:57.537Z,5.97
2022-11-11T19:56:42.931Z,7.28
2022-11-11T19:59:28.014Z,9.05
2022-11-11T20:02:13.187Z,6.88
2022-11-11T20:04:58.627Z,8.35
2022-11-11T20:07:43.654Z,8.23
2022-11-11T20:10:28.922Z,7.65
2022-11-11T20:13:13.766Z,7.97
2022-11-11T20:16:02.381Z,13.10
2022-11-11T20:18:47.407Z,7.93
2022-11-11T20:21:32.477Z,7.25
2022-11-11T20:24:17.775Z,8.75
2022-11-11T20:27:03.034Z,10.45
2022-11-11T20:29:47.939Z,10.52
2022-11-11T20:32:32.849Z,8.48
2022-11-11T20:35:17.896Z,11.60
2022-11-11T20:38:03.284Z,9.40
2022-11-11T20:40:48.202Z,8.63
2022-11-11T20:43:35.168Z,15.65
2022-11-11T20:46:20.650Z,10.68
2022-11-11T20:49:05.667Z,7.43
2022-11-11T20:51:50.725Z,6.43
2022-11-11T20:54:35.835Z,9.27
2022-11-11T20:57:21.105Z,6.68
2022-11-11T21:00:06.437Z,9.15
2022-11-11T21:02:51.354Z,5.55
2022-11-11T21:05:36.241Z,6.72
2022-11-11T21:08:31.450Z,6.75
2022-11-11T21:11:19.737Z,6.75
2022-11-11T21:14:05.060Z,8.60
2022-11-11T21:16:50.538Z,8.23
2022-11-11T21:19:35.432Z,8.73
2022-11-11T21:22:20.488Z,9.60
2022-11-11T21:25:06.066Z,8.93
2022-11-11T21:27:51.054Z,12.45
2022-11-11T21:30:35.785Z,10.48
2022-11-11T21:33:20.780Z,10.00
2022-11-11T21:36:11.904Z,9.30
2022-11-11T21:38:57.422Z,13.43
2022-11-11T21:41:42.351Z,8.98
2022-11-11T21:44:27.350Z,10.40
2022-11-11T21:47:12.251Z,6.38
2022-11-11T21:49:57.360Z,6.90
2022-11-11T21:52:42.287Z,5.95
2022-11-11T21:55:27.831Z,7.03
2022-11-11T21:58:12.555Z,5.88
2022-11-11T22:01:07.401Z,6.45
2022-11-11T22:03:54.870Z,5.32
2022-11-11T22:09:25.803Z,5.63
2022-11-11T22:12:10.974Z,7.72
2022-11-11T22:14:55.769Z,7.22
2022-11-11T22:17:40.645Z,5.40
2022-11-11T22:20:25.806Z,6.65
2022-11-11T22:23:11.009Z,5.47
2022-11-11T22:26:03.881Z,7.60
2022-11-11T22:28:53.886Z,7.50
2022-11-11T22:31:40.355Z,6.60
2022-11-11T22:34:25.180Z,7.03
2022-11-11T22:37:10.238Z,7.30
2022-11-11T22:39:55.406Z,6.38
2022-11-11T22:42:40.221Z,5.25
2022-11-11T22:45:25.157Z,4.85
2022-11-11T22:48:10.369Z,5.90
2022-11-11T22:51:12.885Z,10.07
2022-11-11T22:54:03.610Z,4.70
2022-11-11T22:56:48.898Z,6.25
2022-11-11T22:59:33.931Z,4.03
2022-11-11T23:02:19.208Z,7.70
2022-11-11T23:05:04.415Z,5.43
2022-11-11T23:07:50.060Z,7.07
2022-11-11T23:10:35.120Z,8.55
2022-11-11T23:13:20.862Z,6.90
2022-11-11T23:16:07.991Z,3.47
2022-11-11T23:18:53.258Z,4.35
2022-11-11T23:21:38.524Z,4.65
2022-11-11T23:24:23.480Z,3.70
2022-11-11T23:27:08.611Z,3.40
2022-11-11T23:29:53.934Z,6.18
2022-11-11T23:32:39.507Z,5.97
2022-11-11T23:35:24.718Z,5.82
2022-11-11T23:38:09.639Z,7.20
2022-11-11T23:40:54.586Z,5.22
2022-11-11T23:43:39.736Z,5.25
2022-11-11T23:46:25.017Z,5.95
2022-11-11T23:49:10.505Z,3.45
2022-11-11T23:51:56.012Z,5.20
2022-11-11T23:54:40.994Z,2.95
2022-11-11T23:57:26.317Z,4.18
